Main page
METAR-TAF:

METAR-TAF

Airports :

Oil platform

Norne Fpso, Norway

latitude: 66-01-48N, longitude: 008-04-48E, elevation: 10 m

Current weather observation

The report was made 19 minutes ago, at 17:20 UTC
Wind 6 kt from the West/Northwest
Temperature 14°C
Humidity 77%
Pressure 1015 hPa
Visibility 10 km or more

METAR: ENNE 231720Z AUTO 29006KT 9999 FEW016/// BKN046/// 14/10 Q1015 W///S3

Time: 19:39 (17:39 UTC)

Forecast

The report was made 9 hours and 39 minutes ago, at 08:00 UTC
Forecast valid from 23 at 09 UTC to 23 at 17 UTC
Wind 8 kt from the West/Northwest
Visibility 10 km or more
Few clouds at a height of 1500 ft
Broken clouds at a height of 3000 ft

TAF: ENNE 230800Z 2309/2317 30008KT 9999 FEW015 BKN030

Weather observations and forecasts of more than 4000 airports (METAR and TAF reports).

The available stations are represented by yellow and red dots on the map.

Hover mouse over dot to see the name of the station.

Then click to see weather observations and forecasts.

To change the map : click on the green buttons with a black cross to zoom in, on the green button with a dash to zoom out, or on the green arrows for adjacent maps.


METAR-TAF: